createdAt,value
2018-02-06T00:00:57.311Z,-1.30
2018-02-06T00:03:24.792Z,-1.40
2018-02-06T00:05:52.248Z,-1.40
2018-02-06T00:08:19.984Z,-1.30
2018-02-06T00:10:47.747Z,-1.40
2018-02-06T00:13:15.521Z,-1.40
2018-02-06T00:15:43.280Z,-1.40
2018-02-06T00:18:10.739Z,-1.40
2018-02-06T00:20:38.504Z,-1.40
2018-02-06T00:23:06.180Z,-1.40
2018-02-06T00:25:33.724Z,-1.40
2018-02-06T00:28:01.492Z,-1.40
2018-02-06T00:30:28.952Z,-1.50
2018-02-06T00:32:56.712Z,-1.50
2018-02-06T00:35:24.396Z,-1.60
2018-02-06T00:37:51.861Z,-1.60
2018-02-06T00:40:19.332Z,-1.70
2018-02-06T00:42:47.007Z,-1.70
2018-02-06T00:45:14.462Z,-1.60
2018-02-06T00:47:42.002Z,-1.70
2018-02-06T00:50:09.536Z,-1.70
2018-02-06T00:52:37.000Z,-1.70
2018-02-06T00:55:04.673Z,-1.70
2018-02-06T00:57:32.216Z,-1.70
2018-02-06T00:59:59.980Z,-1.70
2018-02-06T01:02:27.745Z,-1.70
2018-02-06T01:04:55.509Z,-1.70
2018-02-06T01:07:23.186Z,-1.70
2018-02-06T01:09:50.644Z,-1.70
2018-02-06T01:12:18.103Z,-1.70
2018-02-06T01:14:45.835Z,-1.80
2018-02-06T01:17:13.300Z,-1.80
2018-02-06T01:19:40.871Z,-1.80
2018-02-06T01:22:08.632Z,-1.80
2018-02-06T01:24:36.095Z,-1.80
2018-02-06T01:27:03.576Z,-1.80
2018-02-06T01:29:31.231Z,-1.80
2018-02-06T01:31:58.772Z,-1.80
2018-02-06T01:34:26.235Z,-1.90
2018-02-06T01:36:53.999Z,-1.90
2018-02-06T01:39:21.761Z,-1.90
2018-02-06T01:41:49.440Z,-2.00
2018-02-06T01:44:16.983Z,-2.00
2018-02-06T01:46:44.757Z,-1.90
2018-02-06T01:49:12.212Z,-1.90
2018-02-06T01:51:39.678Z,-1.90
2018-02-06T01:54:07.351Z,-1.90
2018-02-06T01:56:34.879Z,-1.90
2018-02-06T01:59:02.347Z,-2.00
2018-02-06T02:01:29.963Z,-2.00
2018-02-06T02:03:57.572Z,-2.10
2018-02-06T02:06:25.038Z,-2.10
2018-02-06T02:08:52.495Z,-2.10
2018-02-06T02:11:20.267Z,-2.10
2018-02-06T02:13:48.024Z,-2.00
2018-02-06T02:16:15.780Z,-2.00
2018-02-06T02:18:43.239Z,-2.10
2018-02-06T02:21:10.697Z,-2.10
2018-02-06T02:23:38.452Z,-2.10
2018-02-06T02:26:06.128Z,-2.10
2018-02-06T02:28:33.592Z,-2.10
2018-02-06T02:31:01.061Z,-2.10
2018-02-06T02:33:29.492Z,-2.10
2018-02-06T02:35:56.963Z,-2.20
2018-02-06T02:38:24.419Z,-2.10
2018-02-06T02:40:54.704Z,-2.10
2018-02-06T04:38:58.712Z,-2.50
2018-02-06T04:41:26.243Z,-2.50
2018-02-06T04:43:53.702Z,-2.50
2018-02-06T04:46:21.161Z,-2.50
2018-02-06T04:48:48.647Z,-2.50
2018-02-06T04:51:16.375Z,-2.50
2018-02-06T04:53:43.842Z,-2.50
2018-02-06T04:56:11.544Z,-2.50
2018-02-06T04:58:39.005Z,-2.50
2018-02-06T05:01:08.265Z,-2.50
2018-02-06T05:03:35.814Z,-2.60
2018-02-06T05:06:03.275Z,-2.50
2018-02-06T05:08:31.040Z,-2.60
2018-02-06T05:10:58.496Z,-2.60
2018-02-06T05:13:26.263Z,-2.50
2018-02-06T05:15:54.032Z,-2.50
2018-02-06T05:18:21.559Z,-2.50
2018-02-06T05:20:49.247Z,-2.60
2018-02-06T05:23:16.708Z,-2.60
2018-02-06T05:25:44.396Z,-2.60
2018-02-06T05:28:11.931Z,-2.60
2018-02-06T05:30:39.392Z,-2.60
2018-02-06T05:33:06.948Z,-2.60
2018-02-06T05:35:34.409Z,-2.60
2018-02-06T05:38:02.073Z,-2.60
2018-02-06T05:40:29.829Z,-2.60
2018-02-06T05:42:57.292Z,-2.60
2018-02-06T05:45:24.756Z,-2.60
2018-02-06T05:47:52.325Z,-2.70
2018-02-06T05:50:20.552Z,-2.70
2018-02-06T05:52:48.040Z,-2.70
2018-02-06T05:55:15.503Z,-2.70
2018-02-06T05:57:43.024Z,-2.70
2018-02-06T06:00:10.640Z,-2.70
2018-02-06T06:02:38.187Z,-2.70
2018-02-06T06:05:05.859Z,-2.70
2018-02-06T06:07:33.319Z,-2.70
2018-02-06T06:10:00.892Z,-2.80
2018-02-06T06:12:28.628Z,-2.80
2018-02-06T06:14:56.392Z,-2.70
2018-02-06T06:17:23.852Z,-2.70
2018-02-06T06:19:51.311Z,-2.80
2018-02-06T06:22:18.987Z,-2.80
2018-02-06T06:24:46.532Z,-2.80
2018-02-06T06:27:13.996Z,-2.80
2018-02-06T06:29:41.448Z,-2.80
2018-02-06T06:32:08.909Z,-2.80
2018-02-06T06:34:36.371Z,-2.80
2018-02-06T06:37:03.832Z,-2.90
2018-02-06T06:39:31.300Z,-2.80
2018-02-06T06:41:59.043Z,-2.80
2018-02-06T06:44:26.504Z,-2.80
2018-02-06T06:46:54.268Z,-2.80
2018-02-06T06:49:21.728Z,-2.80
2018-02-06T06:51:49.188Z,-2.80
2018-02-06T06:54:16.885Z,-2.80
2018-02-06T06:56:44.412Z,-2.80
2018-02-06T06:59:12.309Z,-2.80
2018-02-06T07:01:40.532Z,-2.80
2018-02-06T07:04:08.008Z,-2.80
2018-02-06T07:06:35.772Z,-2.90
2018-02-06T07:09:03.234Z,-2.90
2018-02-06T07:11:30.995Z,-2.90
2018-02-06T07:13:58.455Z,-2.80
2018-02-06T07:16:26.220Z,-2.80
2018-02-06T07:18:53.984Z,-2.70
2018-02-06T07:21:21.776Z,-2.70
2018-02-06T07:23:49.423Z,-2.70
2018-02-06T07:26:16.971Z,-2.70
2018-02-06T07:28:44.432Z,-2.70
2018-02-06T07:31:12.196Z,-2.70
2018-02-06T07:33:39.961Z,-2.70
2018-02-06T07:36:07.420Z,-2.60
2018-02-06T07:38:35.190Z,-2.60
2018-02-06T07:41:02.652Z,-2.50
2018-02-06T07:43:30.316Z,-2.50
2018-02-06T07:45:57.857Z,-2.50
2018-02-06T07:48:25.628Z,-2.50
2018-02-06T07:50:53.391Z,-2.50
2018-02-06T07:53:20.852Z,-2.50
2018-02-06T07:55:48.636Z,-2.50
2018-02-06T07:58:16.380Z,-2.50
2018-02-06T08:00:44.148Z,-2.50
2018-02-06T08:03:11.914Z,-2.50
2018-02-06T08:05:39.371Z,-2.50
2018-02-06T08:08:06.837Z,-2.50
2018-02-06T08:10:34.468Z,-2.50
2018-02-06T08:13:01.937Z,-2.50
2018-02-06T08:15:29.444Z,-2.50
2018-02-06T08:17:56.968Z,-2.50
2018-02-06T08:20:24.732Z,-2.50
2018-02-06T08:22:52.502Z,-2.50
2018-02-06T08:25:20.172Z,-2.50
2018-02-06T08:27:47.632Z,-2.40
2018-02-06T08:30:15.101Z,-2.40
2018-02-06T08:32:42.592Z,-2.40
2018-02-06T08:35:10.048Z,-2.50
2018-02-06T08:37:37.551Z,-2.50
2018-02-06T08:40:05.316Z,-2.40
2018-02-06T08:42:32.784Z,-2.40
2018-02-06T08:45:00.476Z,-2.30
2018-02-06T08:47:28.252Z,-2.30
2018-02-06T08:49:55.785Z,-2.20
2018-02-06T08:52:23.436Z,-2.10
2018-02-06T08:54:50.898Z,-2.10
2018-02-06T08:57:18.364Z,-2.00
2018-02-06T08:59:45.824Z,-1.80
2018-02-06T09:02:14.188Z,-1.60
2018-02-06T09:04:41.823Z,-1.60
2018-02-06T09:07:09.499Z,-1.50
2018-02-06T09:09:36.977Z,-1.40
2018-02-06T09:12:04.435Z,-1.30
2018-02-06T09:14:32.180Z,-1.20
2018-02-06T09:16:59.715Z,-1.10
2018-02-06T09:19:27.304Z,-1.10
2018-02-06T09:21:55.578Z,-1.00
2018-02-06T09:24:23.152Z,-1.00
2018-02-06T09:26:50.709Z,-1.00
2018-02-06T09:29:18.172Z,-1.00
2018-02-06T09:31:45.628Z,-1.00
2018-02-06T09:34:13.380Z,-1.00
2018-02-06T09:36:41.045Z,-1.00
2018-02-06T09:39:08.511Z,-1.10
2018-02-06T09:41:35.973Z,-1.00
2018-02-06T09:44:03.435Z,-0.90
2018-02-06T09:46:30.896Z,-0.90
2018-02-06T09:48:58.450Z,-0.90
2018-02-06T09:51:25.919Z,-0.90
2018-02-06T09:53:53.375Z,-0.80
2018-02-06T09:56:21.131Z,-0.80
2018-02-06T09:58:48.879Z,-0.70
2018-02-06T10:01:16.340Z,-0.70
2018-02-06T10:03:43.824Z,-0.60
2018-02-06T10:06:11.561Z,-0.60
2018-02-06T10:08:39.327Z,-0.60
2018-02-06T10:11:06.784Z,-0.60
2018-02-06T10:13:34.548Z,-0.50
2018-02-06T10:16:02.312Z,-0.40
2018-02-06T10:18:29.771Z,-0.30
2018-02-06T19:57:58.187Z,1.00
2018-02-06T20:00:25.635Z,0.70
2018-02-06T20:02:53.106Z,0.70
2018-02-06T20:05:20.560Z,0.60
2018-02-06T20:07:48.012Z,0.50
2018-02-06T20:10:15.487Z,0.50
2018-02-06T20:12:42.924Z,0.50
2018-02-06T20:15:10.363Z,0.50
2018-02-06T20:17:38.619Z,0.50
2018-02-06T20:20:06.095Z,0.50
2018-02-06T20:22:33.702Z,0.50
2018-02-06T20:25:01.186Z,0.50
2018-02-06T20:27:28.617Z,0.50
2018-02-06T20:29:56.197Z,0.50
2018-02-06T20:32:23.607Z,0.40
2018-02-06T20:34:51.848Z,0.40
2018-02-06T20:37:19.271Z,0.40
2018-02-06T20:39:46.863Z,0.40
2018-02-06T20:42:14.291Z,0.50
2018-02-06T20:44:41.742Z,0.40
2018-02-06T20:47:09.944Z,0.40
2018-02-06T20:49:37.387Z,0.40
2018-02-06T20:52:05.669Z,0.40
2018-02-06T20:54:33.919Z,0.40
2018-02-06T20:57:01.442Z,0.40
2018-02-06T20:59:28.863Z,0.40
2018-02-06T21:01:57.065Z,0.50
2018-02-06T21:04:24.503Z,0.50
2018-02-06T21:06:52.119Z,0.50
2018-02-06T21:09:19.559Z,0.40
2018-02-06T21:11:47.039Z,0.50
2018-02-06T21:14:14.503Z,0.50
2018-02-06T21:16:41.947Z,0.40
2018-02-06T21:19:11.008Z,0.30
2018-02-06T21:21:39.203Z,0.30
2018-02-06T21:24:06.711Z,0.30
2018-02-06T21:26:34.163Z,0.30
2018-02-06T21:29:01.628Z,0.40
2018-02-06T21:31:29.100Z,0.40
2018-02-06T21:33:56.623Z,0.40
2018-02-06T21:36:24.052Z,0.30
2018-02-06T21:38:52.243Z,0.30
2018-02-06T21:41:19.690Z,0.30
2018-02-06T21:43:47.119Z,0.30
2018-02-06T21:46:14.561Z,0.30
2018-02-06T21:48:41.998Z,0.30
2018-02-06T21:51:09.430Z,0.20
2018-02-06T21:53:37.631Z,0.30
2018-02-06T21:56:05.127Z,0.30
2018-02-06T21:58:32.574Z,0.20
2018-02-06T22:01:00.037Z,0.20
2018-02-06T22:03:27.464Z,0.20
2018-02-06T22:05:55.671Z,0.20
2018-02-06T22:08:23.161Z,0.20
2018-02-06T22:10:50.615Z,0.20
2018-02-06T22:13:18.155Z,0.20
2018-02-06T22:15:45.595Z,0.20
2018-02-06T22:18:13.815Z,0.10
2018-02-06T22:20:41.255Z,0.10
2018-02-06T22:23:08.819Z,0.10
2018-02-06T22:25:36.307Z,0.10
2018-02-06T22:28:03.771Z,0.10
2018-02-06T22:30:31.215Z,0.20
2018-02-06T22:32:58.686Z,0.20
2018-02-06T22:35:26.155Z,0.20
2018-02-06T22:37:53.613Z,0.20
2018-02-06T22:40:21.077Z,0.10
2018-02-06T22:42:48.543Z,0.20
2018-02-06T22:45:15.998Z,0.20
2018-02-06T22:47:43.559Z,0.10
2018-02-06T22:50:10.996Z,0.10
2018-02-06T22:52:38.427Z,0.10
2018-02-06T22:55:06.659Z,0.10
2018-02-06T22:57:34.093Z,0.00
2018-02-06T23:00:01.579Z,0.00
2018-02-06T23:02:29.047Z,0.00
2018-02-06T23:04:56.480Z,0.00
2018-02-06T23:07:23.924Z,0.00
2018-02-06T23:09:52.119Z,0.00
2018-02-06T23:12:19.607Z,0.00
2018-02-06T23:14:47.047Z,0.00
2018-02-06T23:17:14.527Z,0.00
2018-02-06T23:19:41.987Z,0.00
2018-02-06T23:22:09.426Z,0.00
2018-02-06T23:24:36.859Z,0.00
2018-02-06T23:27:05.095Z,-0.10
2018-02-06T23:29:32.528Z,-0.10
2018-02-06T23:31:59.975Z,-0.20
2018-02-06T23:34:27.475Z,-0.20
2018-02-06T23:36:54.937Z,-0.10
2018-02-06T23:39:22.395Z,-0.20
2018-02-06T23:41:49.860Z,-0.10
2018-02-06T23:44:17.398Z,-0.10
2018-02-06T23:46:44.883Z,-0.20
2018-02-06T23:49:12.316Z,-0.20
2018-02-06T23:51:39.807Z,-0.20
2018-02-06T23:54:07.242Z,-0.20
2018-02-06T23:56:34.727Z,-0.20
2018-02-06T23:59:02.164Z,-0.20
